createdAt,value
2022-09-29T00:02:29.776Z,11.85
2022-09-29T00:04:57.480Z,11.80
2022-09-29T00:07:25.196Z,11.78
2022-09-29T00:09:52.989Z,11.76
2022-09-29T00:12:22.447Z,11.75
2022-09-29T00:14:50.178Z,11.72
2022-09-29T00:17:17.912Z,11.70
2022-09-29T00:19:45.686Z,11.70
2022-09-29T00:22:13.418Z,11.67
2022-09-29T00:24:41.181Z,11.68
2022-09-29T00:27:08.924Z,11.66
2022-09-29T00:29:37.994Z,11.64
2022-09-29T00:32:05.748Z,11.61
2022-09-29T00:34:33.545Z,11.59
2022-09-29T00:37:02.956Z,11.54
2022-09-29T00:39:30.677Z,11.53
2022-09-29T00:41:58.673Z,11.55
2022-09-29T00:45:06.716Z,11.54
2022-09-29T00:47:37.217Z,11.52
2022-09-29T00:50:07.723Z,11.51
2022-09-29T00:52:38.252Z,11.54
2022-09-29T00:55:08.972Z,11.52
2022-09-29T00:57:40.326Z,11.53
2022-09-29T01:00:11.573Z,11.53
2022-09-29T01:02:44.146Z,11.52
2022-09-29T01:05:15.042Z,11.51
2022-09-29T01:07:44.101Z,11.51
2022-09-29T01:10:12.435Z,11.48
2022-09-29T01:12:40.225Z,11.48
2022-09-29T01:15:08.831Z,11.48
2022-09-29T01:17:36.568Z,11.47
2022-09-29T01:20:13.091Z,11.46
2022-09-29T01:23:21.809Z,11.45
2022-09-29T01:26:00.748Z,11.46
2022-09-29T01:28:51.745Z,11.43
2022-09-29T01:31:24.511Z,11.45
2022-09-29T01:33:56.698Z,11.44
2022-09-29T01:36:30.859Z,11.44
2022-09-29T01:39:06.660Z,11.42
2022-09-29T01:41:37.829Z,11.43
2022-09-29T01:44:09.970Z,11.44
2022-09-29T01:46:41.526Z,11.42
2022-09-29T01:49:09.980Z,11.43
2022-09-29T01:51:41.406Z,11.43
2022-09-29T01:54:14.027Z,11.43
2022-09-29T01:56:44.977Z,11.40
2022-09-29T01:59:16.670Z,11.32
2022-09-29T02:01:49.031Z,11.21
2022-09-29T02:04:19.212Z,11.21
2022-09-29T02:06:51.023Z,11.06
2022-09-29T02:09:24.009Z,11.16
2022-09-29T02:11:53.982Z,11.05
2022-09-29T02:14:23.676Z,10.90
2022-09-29T02:16:57.847Z,11.00
2022-09-29T02:19:27.006Z,11.24
2022-09-29T02:21:55.429Z,11.30
2022-09-29T02:24:23.921Z,11.27
2022-09-29T02:26:52.242Z,11.29
2022-09-29T02:29:20.573Z,11.29
2022-09-29T02:31:48.924Z,11.27
2022-09-29T02:34:20.464Z,11.26
2022-09-29T02:36:56.890Z,11.28
2022-09-29T02:39:35.222Z,11.22
2022-09-29T02:42:10.532Z,11.25
2022-09-29T02:44:51.326Z,11.22
2022-09-29T02:47:38.221Z,11.18
2022-09-29T02:50:47.407Z,11.03
2022-09-29T02:53:23.080Z,11.22
2022-09-29T02:55:57.141Z,11.28
2022-09-29T02:58:29.755Z,11.12
2022-09-29T03:00:58.859Z,11.24
2022-09-29T03:03:26.768Z,11.20
2022-09-29T03:05:54.670Z,11.17
2022-09-29T03:08:23.736Z,11.20
2022-09-29T03:10:51.444Z,11.14
2022-09-29T03:13:19.166Z,10.98
2022-09-29T03:15:46.869Z,11.00
2022-09-29T03:18:14.568Z,11.13
2022-09-29T03:20:42.867Z,11.14
2022-09-29T03:23:10.637Z,11.16
2022-09-29T03:25:39.697Z,11.14
2022-09-29T03:28:07.434Z,11.13
2022-09-29T03:30:35.197Z,11.14
2022-09-29T03:33:02.914Z,11.15
2022-09-29T03:35:30.820Z,11.10
2022-09-29T03:37:59.213Z,11.12
2022-09-29T03:40:27.067Z,11.09
2022-09-29T03:42:56.366Z,11.11
2022-09-29T03:45:24.133Z,11.07
2022-09-29T03:47:51.977Z,11.03
2022-09-29T03:50:19.708Z,11.03
2022-09-29T03:52:47.420Z,11.07
2022-09-29T03:55:15.318Z,11.05
2022-09-29T03:57:43.009Z,11.05
2022-09-29T04:00:13.605Z,11.01
2022-09-29T04:02:41.398Z,11.04
2022-09-29T04:05:09.340Z,11.02
2022-09-29T04:07:37.035Z,10.94
2022-09-29T04:10:05.234Z,11.00
2022-09-29T04:12:32.966Z,11.00
2022-09-29T04:15:00.678Z,10.98
2022-09-29T04:17:29.779Z,10.92
2022-09-29T04:19:57.534Z,10.96
2022-09-29T04:22:25.325Z,10.95
2022-09-29T04:24:53.026Z,10.92
2022-09-29T04:27:20.777Z,10.94
2022-09-29T04:29:48.569Z,10.83
2022-09-29T04:32:16.278Z,10.84
2022-09-29T04:34:45.374Z,10.88
2022-09-29T04:37:13.120Z,10.84
2022-09-29T04:39:41.158Z,10.87
2022-09-29T04:42:08.846Z,10.84
2022-09-29T04:44:36.564Z,10.79
2022-09-29T04:47:04.552Z,10.83
2022-09-29T04:49:32.298Z,10.81
2022-09-29T04:52:03.045Z,10.80
2022-09-29T04:54:35.501Z,10.77
2022-09-29T04:57:05.466Z,10.78
2022-09-29T04:59:33.210Z,10.76
2022-09-29T05:02:01.011Z,10.74
2022-09-29T05:04:28.804Z,10.75
2022-09-29T05:06:56.753Z,10.75
2022-09-29T05:09:27.869Z,10.75
2022-09-29T05:11:58.994Z,10.74
2022-09-29T05:14:26.700Z,10.71
2022-09-29T05:16:55.626Z,10.71
2022-09-29T05:19:23.454Z,10.70
2022-09-29T05:21:51.212Z,10.69
2022-09-29T05:24:18.925Z,10.63
2022-09-29T05:26:48.155Z,10.54
2022-09-29T05:29:16.038Z,10.51
2022-09-29T05:31:44.033Z,10.59
2022-09-29T05:34:12.006Z,10.52
2022-09-29T05:36:39.742Z,10.44
2022-09-29T05:39:07.505Z,10.54
2022-09-29T05:41:35.250Z,10.59
2022-09-29T05:44:04.546Z,10.51
2022-09-29T05:46:32.307Z,10.50
2022-09-29T05:49:00.025Z,10.48
2022-09-29T05:51:28.013Z,10.54
2022-09-29T05:53:56.090Z,10.56
2022-09-29T05:56:26.342Z,10.53
2022-09-29T05:58:55.092Z,10.51
2022-09-29T06:01:26.242Z,10.53
2022-09-29T06:03:54.857Z,10.27
2022-09-29T06:06:24.076Z,10.16
2022-09-29T06:08:52.226Z,10.13
2022-09-29T06:11:21.297Z,10.20
2022-09-29T06:13:51.016Z,10.02
2022-09-29T06:16:20.986Z,9.95
2022-09-29T06:18:50.698Z,10.16
2022-09-29T06:21:20.023Z,9.88
2022-09-29T06:23:48.062Z,9.95
2022-09-29T06:26:22.789Z,10.18
2022-09-29T06:28:51.574Z,10.08
2022-09-29T06:31:24.481Z,10.08
2022-09-29T06:33:54.415Z,10.23
2022-09-29T06:36:42.069Z,10.23
2022-09-29T06:39:12.154Z,10.18
2022-09-29T06:41:39.890Z,9.98
2022-09-29T06:44:07.653Z,10.14
2022-09-29T06:46:35.494Z,9.84
2022-09-29T06:49:04.619Z,9.84
2022-09-29T06:51:43.630Z,9.73
2022-09-29T06:54:12.847Z,9.81
2022-09-29T06:56:40.758Z,9.87
2022-09-29T06:59:08.905Z,9.69
2022-09-29T07:01:36.724Z,9.66
2022-09-29T07:04:06.312Z,9.89
2022-09-29T07:06:34.756Z,9.67
2022-09-29T07:09:02.968Z,9.86
2022-09-29T07:11:30.698Z,9.82
2022-09-29T07:13:58.450Z,9.73
2022-09-29T07:16:26.264Z,9.94
2022-09-29T07:18:54.362Z,9.63
2022-09-29T07:21:23.478Z,9.78
2022-09-29T07:23:51.209Z,9.74
2022-09-29T07:26:19.023Z,9.41
2022-09-29T07:28:47.998Z,9.84
2022-09-29T07:31:17.390Z,9.73
2022-09-29T07:33:45.771Z,9.75
2022-09-29T07:36:14.120Z,9.99
2022-09-29T07:38:43.548Z,9.74
2022-09-29T07:41:12.541Z,9.96
2022-09-29T07:43:40.418Z,9.92
2022-09-29T07:46:08.901Z,10.13
2022-09-29T07:48:38.269Z,9.95
2022-09-29T07:51:09.685Z,9.94
2022-09-29T07:53:38.632Z,10.18
2022-09-29T07:56:09.846Z,10.34
2022-09-29T07:58:38.352Z,10.04
2022-09-29T08:01:10.328Z,10.00
2022-09-29T08:03:38.916Z,10.17
2022-09-29T08:06:07.129Z,9.96
2022-09-29T08:08:35.973Z,10.11
2022-09-29T08:11:22.647Z,10.16
2022-09-29T08:13:56.301Z,9.94
2022-09-29T08:16:24.310Z,9.85
2022-09-29T08:18:52.264Z,9.95
2022-09-29T08:21:20.009Z,10.04
2022-09-29T08:23:47.720Z,9.99
2022-09-29T08:26:19.178Z,10.18
2022-09-29T08:28:57.291Z,10.10
2022-09-29T08:31:26.888Z,10.15
2022-09-29T08:33:54.616Z,9.99
2022-09-29T08:36:22.353Z,10.19
2022-09-29T08:38:51.682Z,10.18
2022-09-29T08:41:33.824Z,10.16
2022-09-29T08:44:04.421Z,10.20
2022-09-29T08:46:36.563Z,10.09
2022-09-29T08:49:07.419Z,10.13
2022-09-29T08:51:42.632Z,10.00
2022-09-29T08:54:25.228Z,10.32
2022-09-29T08:57:03.114Z,10.46
2022-09-29T08:59:31.190Z,10.44
2022-09-29T09:02:09.008Z,10.75
2022-09-29T09:05:00.945Z,10.80
2022-09-29T09:07:36.314Z,11.05
2022-09-29T09:10:11.848Z,11.02
2022-09-29T09:12:55.743Z,11.20
2022-09-29T09:15:48.669Z,11.29
2022-09-29T09:18:37.146Z,11.69
2022-09-29T09:21:09.115Z,11.53
2022-09-29T09:23:49.213Z,11.81
2022-09-29T09:26:18.258Z,11.74
2022-09-29T09:28:50.860Z,11.75
2022-09-29T09:31:25.158Z,11.71
2022-09-29T09:34:04.829Z,11.70
2022-09-29T09:36:36.676Z,11.55
2022-09-29T09:39:07.464Z,11.73
2022-09-29T09:41:37.275Z,11.83
2022-09-29T09:44:11.998Z,11.81
2022-09-29T09:46:41.933Z,11.83
2022-09-29T09:49:16.028Z,11.80
2022-09-29T09:51:48.044Z,11.82
2022-09-29T09:54:20.746Z,11.91
2022-09-29T09:57:10.685Z,12.32
2022-09-29T09:59:48.762Z,12.19
2022-09-29T10:02:19.522Z,12.60
2022-09-29T10:04:49.952Z,12.73
2022-09-29T10:07:18.426Z,12.55
2022-09-29T10:09:46.429Z,12.66
2022-09-29T10:12:16.404Z,12.91
2022-09-29T10:14:49.450Z,12.58
2022-09-29T10:17:18.340Z,12.76
2022-09-29T10:19:58.521Z,12.37
2022-09-29T10:22:27.442Z,12.49
2022-09-29T10:24:58.294Z,12.79
2022-09-29T10:27:29.356Z,12.66
2022-09-29T10:29:59.482Z,12.85
2022-09-29T10:32:36.415Z,12.51
2022-09-29T10:35:10.133Z,12.81
2022-09-29T10:37:40.467Z,12.85
2022-09-29T10:40:20.742Z,13.12
2022-09-29T10:42:50.981Z,12.90
2022-09-29T10:45:22.058Z,12.68
2022-09-29T10:48:07.615Z,12.69
2022-09-29T10:50:37.742Z,12.56
2022-09-29T10:53:18.234Z,12.73
2022-09-29T10:55:51.203Z,12.67
2022-09-29T10:58:44.120Z,12.80
2022-09-29T11:01:13.365Z,12.56
2022-09-29T11:03:42.381Z,12.71
2022-09-29T11:06:12.893Z,12.94
2022-09-29T11:08:59.068Z,12.71
2022-09-29T11:11:29.217Z,12.91
2022-09-29T11:13:57.981Z,12.98
2022-09-29T11:16:31.323Z,12.92
2022-09-29T11:19:03.094Z,12.91
2022-09-29T11:21:52.255Z,12.73
2022-09-29T11:24:27.079Z,13.05
2022-09-29T11:26:58.886Z,13.19
2022-09-29T11:29:33.366Z,13.13
2022-09-29T11:32:18.480Z,13.10
2022-09-29T11:34:57.058Z,13.10
2022-09-29T11:37:36.152Z,13.33
2022-09-29T11:40:13.022Z,13.22
2022-09-29T11:42:52.745Z,13.28
2022-09-29T11:45:23.907Z,13.24
2022-09-29T11:48:12.952Z,13.29
2022-09-29T11:50:48.472Z,13.30
2022-09-29T11:53:27.334Z,13.16
2022-09-29T11:56:04.501Z,13.33
2022-09-29T11:58:45.917Z,13.30
2022-09-29T12:01:30.625Z,13.38
2022-09-29T12:04:36.472Z,13.32
2022-09-29T12:07:13.459Z,13.57
2022-09-29T12:10:13.471Z,13.34
2022-09-29T12:12:45.814Z,13.54
2022-09-29T12:15:22.313Z,13.77
2022-09-29T12:17:53.343Z,13.71
2022-09-29T12:20:24.718Z,13.78
2022-09-29T12:22:54.481Z,13.74
2022-09-29T12:25:25.869Z,13.87
2022-09-29T12:27:56.483Z,14.01
2022-09-29T12:30:29.362Z,14.10
2022-09-29T12:33:00.911Z,14.12
2022-09-29T12:35:36.639Z,14.08
2022-09-29T12:38:14.051Z,13.93
2022-09-29T12:40:44.439Z,14.31
2022-09-29T12:43:18.305Z,14.08
2022-09-29T12:45:52.791Z,13.87
2022-09-29T12:48:27.329Z,14.11
2022-09-29T12:51:00.934Z,13.99
2022-09-29T12:53:34.237Z,14.10
2022-09-29T12:56:05.484Z,13.93
2022-09-29T12:58:39.531Z,13.86
2022-09-29T13:01:23.435Z,13.83
2022-09-29T13:04:15.308Z,14.06
2022-09-29T13:07:17.367Z,14.00
2022-09-29T13:09:56.806Z,14.12
2022-09-29T13:12:44.510Z,14.14
2022-09-29T13:15:25.433Z,14.22
2022-09-29T13:18:05.718Z,14.23
2022-09-29T13:20:43.874Z,14.15
2022-09-29T13:23:37.622Z,14.21
2022-09-29T13:26:38.365Z,14.14
2022-09-29T13:29:12.796Z,14.20
2022-09-29T13:34:29.020Z,14.09
2022-09-29T13:37:06.584Z,14.28
2022-09-29T13:39:36.126Z,14.19
2022-09-29T13:42:34.091Z,14.26
2022-09-29T13:45:42.303Z,14.17
2022-09-29T13:48:52.717Z,14.40
2022-09-29T13:51:39.586Z,14.24
2022-09-29T13:54:40.217Z,14.28
2022-09-29T13:57:26.672Z,14.39
2022-09-29T14:00:24.713Z,14.32
2022-09-29T14:03:04.198Z,14.23
2022-09-29T14:06:29.286Z,14.36
2022-09-29T14:09:03.753Z,14.35
2022-09-29T14:11:35.814Z,14.33
2022-09-29T14:14:06.855Z,14.64
2022-09-29T14:16:53.342Z,14.28
2022-09-29T14:19:35.066Z,14.24
2022-09-29T14:22:05.577Z,14.44
2022-09-29T14:24:47.135Z,14.43
2022-09-29T14:27:33.712Z,14.37
2022-09-29T14:30:12.638Z,14.37
2022-09-29T14:32:42.846Z,14.59
2022-09-29T14:35:35.207Z,14.48
2022-09-29T14:38:05.944Z,14.51
2022-09-29T14:40:34.176Z,14.47
2022-09-29T14:43:16.987Z,14.50
2022-09-29T14:46:27.988Z,14.57
2022-09-29T14:49:21.954Z,14.50
2022-09-29T14:52:00.994Z,14.49
2022-09-29T14:54:39.377Z,14.37
2022-09-29T14:57:15.841Z,14.41
2022-09-29T14:59:57.100Z,14.57
2022-09-29T15:02:26.719Z,14.57
2022-09-29T15:04:54.506Z,14.61
2022-09-29T15:07:24.438Z,14.51
2022-09-29T15:09:53.529Z,14.49
2022-09-29T15:12:23.376Z,14.51
2022-09-29T15:14:52.598Z,14.34
2022-09-29T15:17:32.590Z,14.30
2022-09-29T15:20:08.123Z,14.13
2022-09-29T15:23:00.020Z,14.00
2022-09-29T15:25:31.089Z,13.82
2022-09-29T15:28:02.539Z,13.90
2022-09-29T15:30:32.319Z,13.97
2022-09-29T15:33:17.938Z,14.12
2022-09-29T15:35:48.514Z,13.95
2022-09-29T15:38:21.573Z,14.01
2022-09-29T15:40:54.488Z,14.04
2022-09-29T15:43:23.441Z,14.00
2022-09-29T15:45:59.220Z,14.02
2022-09-29T15:48:27.241Z,14.07
2022-09-29T15:50:55.730Z,14.04
2022-09-29T15:53:23.947Z,14.04
2022-09-29T15:55:53.260Z,14.03
2022-09-29T15:58:44.477Z,14.03
2022-09-29T16:01:15.198Z,13.99
2022-09-29T16:03:46.611Z,13.98
2022-09-29T16:06:19.841Z,13.99
2022-09-29T16:08:50.158Z,14.06
2022-09-29T16:11:21.761Z,14.04
2022-09-29T16:13:55.476Z,14.07
2022-09-29T16:16:31.128Z,14.03
2022-09-29T16:19:04.815Z,13.89
2022-09-29T16:21:37.502Z,14.01
2022-09-29T16:24:15.296Z,14.02
2022-09-29T16:26:45.429Z,14.02
2022-09-29T16:29:31.506Z,14.06
2022-09-29T16:32:05.729Z,14.08
2022-09-29T16:34:33.908Z,14.07
2022-09-29T16:37:05.835Z,14.04
2022-09-29T16:39:44.606Z,14.06
2022-09-29T16:42:19.164Z,14.07
2022-09-29T16:44:50.617Z,14.08
2022-09-29T16:47:25.456Z,14.10
2022-09-29T16:49:54.040Z,14.15
2022-09-29T16:52:25.942Z,14.11
2022-09-29T16:54:54.974Z,14.08
2022-09-29T16:57:26.437Z,13.89
2022-09-29T16:59:55.763Z,14.12
2022-09-29T17:02:25.831Z,13.85
2022-09-29T17:04:54.589Z,14.08
2022-09-29T17:07:24.085Z,14.12
2022-09-29T17:09:55.010Z,14.12
2022-09-29T17:12:23.492Z,14.10
2022-09-29T17:14:51.414Z,14.11
2022-09-29T17:17:22.384Z,14.21
2022-09-29T17:19:51.763Z,14.18
2022-09-29T17:22:29.315Z,14.12
2022-09-29T17:24:57.061Z,14.12
2022-09-29T17:27:42.745Z,14.18
2022-09-29T17:30:11.892Z,14.27
2022-09-29T17:32:44.226Z,13.87
2022-09-29T17:35:14.438Z,13.95
2022-09-29T17:37:43.997Z,14.10
2022-09-29T17:40:20.282Z,14.18
2022-09-29T17:42:48.275Z,14.03
2022-09-29T17:45:16.701Z,13.90
2022-09-29T17:47:44.886Z,13.52
2022-09-29T17:50:20.216Z,13.84
2022-09-29T17:52:47.937Z,14.02
2022-09-29T17:55:15.745Z,13.64
2022-09-29T17:57:44.618Z,13.50
2022-09-29T18:00:16.908Z,13.66
2022-09-29T18:02:44.711Z,13.76
2022-09-29T18:05:12.442Z,13.44
2022-09-29T18:07:41.834Z,13.53
2022-09-29T18:10:20.496Z,13.43
2022-09-29T18:12:48.241Z,13.33
2022-09-29T18:15:17.006Z,13.80
2022-09-29T18:17:45.922Z,14.01
2022-09-29T18:20:15.905Z,13.66
2022-09-29T18:22:45.938Z,14.11
2022-09-29T18:25:14.628Z,13.93
2022-09-29T18:27:47.485Z,14.03
2022-09-29T18:30:20.205Z,14.02
2022-09-29T18:32:49.212Z,14.05
2022-09-29T18:35:18.868Z,14.13
2022-09-29T18:37:47.984Z,14.02
2022-09-29T18:40:15.839Z,13.96
2022-09-29T18:42:45.086Z,13.95
2022-09-29T18:45:14.538Z,13.89
2022-09-29T18:47:43.853Z,13.99
2022-09-29T18:50:16.120Z,13.93
2022-09-29T18:52:43.864Z,13.62
2022-09-29T18:55:14.210Z,13.97
2022-09-29T18:57:42.354Z,14.16
2022-09-29T19:00:14.689Z,13.87
2022-09-29T19:02:43.286Z,14.21
2022-09-29T19:05:13.113Z,14.09
2022-09-29T19:07:40.825Z,14.18
2022-09-29T19:10:09.636Z,14.22
2022-09-29T19:12:39.299Z,14.23
2022-09-29T19:15:07.841Z,14.24
2022-09-29T19:17:35.598Z,14.24
2022-09-29T19:20:04.258Z,14.23
2022-09-29T19:22:38.280Z,14.20
2022-09-29T19:25:07.529Z,14.22
2022-09-29T19:27:35.305Z,14.16
2022-09-29T19:30:05.446Z,14.22
2022-09-29T19:32:33.189Z,14.23
2022-09-29T19:35:01.072Z,14.23
2022-09-29T19:37:29.119Z,14.22
2022-09-29T19:39:57.656Z,14.22
2022-09-29T19:42:26.102Z,14.17
2022-09-29T19:44:53.909Z,14.19
2022-09-29T19:47:23.048Z,14.23
2022-09-29T19:50:10.848Z,14.19
2022-09-29T19:52:37.593Z,14.22
2022-09-29T19:55:10.937Z,14.21
2022-09-29T19:57:40.981Z,14.22
2022-09-29T20:00:10.003Z,14.20
2022-09-29T20:02:39.236Z,14.21
2022-09-29T20:05:08.696Z,14.20
2022-09-29T20:07:36.517Z,14.20
2022-09-29T20:10:07.049Z,14.21
2022-09-29T20:12:35.061Z,14.19
2022-09-29T20:15:04.619Z,14.15
2022-09-29T20:17:32.353Z,14.21
2022-09-29T20:20:03.114Z,14.22
2022-09-29T20:22:32.513Z,14.23
2022-09-29T20:25:00.284Z,14.23
2022-09-29T20:27:28.017Z,14.21
2022-09-29T20:29:56.306Z,14.24
2022-09-29T20:32:24.180Z,14.22
2022-09-29T20:34:51.950Z,14.18
2022-09-29T20:37:21.050Z,14.17
2022-09-29T20:39:50.067Z,14.20
2022-09-29T20:42:17.973Z,14.19
2022-09-29T20:44:45.685Z,14.19
2022-09-29T20:47:13.482Z,14.22
2022-09-29T20:49:41.218Z,14.21
2022-09-29T20:52:08.962Z,14.20
2022-09-29T20:54:38.085Z,14.21
2022-09-29T20:57:06.076Z,14.19
2022-09-29T20:59:37.092Z,14.21
2022-09-29T21:02:04.945Z,14.21
2022-09-29T21:04:32.768Z,14.17
2022-09-29T21:07:00.545Z,14.19
2022-09-29T21:09:31.132Z,14.15
2022-09-29T21:12:03.090Z,14.19
2022-09-29T21:14:32.420Z,14.13
2022-09-29T21:17:00.577Z,14.21
2022-09-29T21:19:31.539Z,13.90
2022-09-29T21:21:59.372Z,14.13
2022-09-29T21:24:27.834Z,14.17
2022-09-29T21:26:58.904Z,14.13
2022-09-29T21:29:28.585Z,14.04
2022-09-29T21:31:56.423Z,14.10
2022-09-29T21:34:24.413Z,14.15
2022-09-29T21:36:52.291Z,14.14
2022-09-29T21:39:20.183Z,14.12
2022-09-29T21:41:48.038Z,14.16
2022-09-29T21:44:17.714Z,14.16
2022-09-29T21:46:47.304Z,14.17
2022-09-29T21:49:16.769Z,14.19
2022-09-29T21:51:46.639Z,14.14
2022-09-29T21:54:16.222Z,14.04
2022-09-29T21:56:50.529Z,14.00
2022-09-29T21:59:19.991Z,14.06
2022-09-29T22:01:49.770Z,14.03
2022-09-29T22:04:18.291Z,14.07
2022-09-29T22:06:46.575Z,14.03
2022-09-29T22:09:17.554Z,14.06
2022-09-29T22:11:45.845Z,14.12
2022-09-29T22:14:15.849Z,14.13
2022-09-29T22:16:44.797Z,14.14
2022-09-29T22:19:29.727Z,14.11
2022-09-29T22:21:57.652Z,14.07
2022-09-29T22:24:27.289Z,14.14
2022-09-29T22:26:55.382Z,14.13
2022-09-29T22:29:23.451Z,14.10
2022-09-29T22:31:51.731Z,14.11
2022-09-29T22:34:20.981Z,14.09
2022-09-29T22:36:48.811Z,14.09
2022-09-29T22:39:16.635Z,14.07
2022-09-29T22:41:44.563Z,14.13
2022-09-29T22:44:12.392Z,14.13
2022-09-29T22:46:40.298Z,14.16
2022-09-29T22:49:08.265Z,14.12
2022-09-29T22:51:37.509Z,14.11
2022-09-29T22:54:05.414Z,14.11
2022-09-29T22:56:33.291Z,14.11
2022-09-29T22:59:03.056Z,14.09
2022-09-29T23:01:31.011Z,14.10
2022-09-29T23:03:58.951Z,14.10
2022-09-29T23:06:26.893Z,14.08
2022-09-29T23:08:56.327Z,14.05
2022-09-29T23:11:24.261Z,14.04
2022-09-29T23:13:52.688Z,14.00
2022-09-29T23:16:20.577Z,14.03
2022-09-29T23:18:53.762Z,13.99
2022-09-29T23:21:22.432Z,14.00
2022-09-29T23:23:54.036Z,13.99
2022-09-29T23:26:23.302Z,13.98
2022-09-29T23:28:55.676Z,13.88
2022-09-29T23:31:23.980Z,13.76
2022-09-29T23:33:53.054Z,13.64
2022-09-29T23:36:20.937Z,13.76
2022-09-29T23:39:06.510Z,13.89
2022-09-29T23:41:39.554Z,13.88
2022-09-29T23:44:10.695Z,13.91
2022-09-29T23:46:40.015Z,13.66
2022-09-29T23:49:10.061Z,13.65
2022-09-29T23:51:39.581Z,13.69
2022-09-29T23:54:07.655Z,13.78
2022-09-29T23:56:35.779Z,13.84
2022-09-29T23:59:05.998Z,13.79
